Terminal Aerodrome Forecast
Issued by NWS

Home | Current Version | Previous Version | Text Only | Print | Product List | Glossary On
Versions: 1 2 3 4 5 6 7 8 9 10 11 12 13 14 15 16 17 18 19 20 21 22
000
FTUS41 KBOX 051745 AAC
TAFACK
TAF AMD
KACK 051745Z 0518/0618 02022G30KT 3SM -RA BR OVC007
     FM052200 02024KT 2SM -SHRA BR OVC003
     FM060200 01023KT 2SM BR VCSH OVC003
     FM060600 01018G25KT 3SM BR OVC003
     FM061400 05014KT 2SM BR OVC004
     FM061700 06015KT 3SM BR BKN008=

USA.gov is the U.S. government's official web portal to all federal, state and local government web resources and services.